createdAt,value
2024-01-20T00:00:58.814Z,21.02
2024-01-20T00:03:27.321Z,20.75
2024-01-20T00:05:56.285Z,19.38
2024-01-20T00:08:25.254Z,21.50
2024-01-20T00:10:55.295Z,20.90
2024-01-20T00:13:23.727Z,21.73
2024-01-20T00:15:52.496Z,19.42
2024-01-20T00:18:21.617Z,20.55
2024-01-20T00:20:50.136Z,21.17
2024-01-20T00:23:19.677Z,20.40
2024-01-20T00:25:48.281Z,19.67
2024-01-20T00:28:19.277Z,20.65
2024-01-20T00:30:48.286Z,20.17
2024-01-20T00:33:16.980Z,21.60
2024-01-20T00:35:45.952Z,20.08
2024-01-20T00:38:14.639Z,21.73
2024-01-20T00:40:43.551Z,22.70
2024-01-20T00:43:12.129Z,21.38
2024-01-20T00:45:41.898Z,22.75
2024-01-20T00:48:10.528Z,22.95
2024-01-20T00:50:38.899Z,21.98
2024-01-20T00:53:07.658Z,22.10
2024-01-20T00:55:36.155Z,22.23
2024-01-20T00:58:05.195Z,22.85
2024-01-20T01:00:33.759Z,24.30
2024-01-20T01:03:04.019Z,22.95
2024-01-20T01:05:32.869Z,23.45
2024-01-20T01:08:01.336Z,22.52
2024-01-20T01:10:29.985Z,22.70
2024-01-20T01:12:59.122Z,22.65
2024-01-20T01:15:29.296Z,24.58
2024-01-20T01:17:57.853Z,24.08
2024-01-20T01:20:28.162Z,21.45
2024-01-20T01:22:56.682Z,21.88
2024-01-20T01:25:25.128Z,21.83
2024-01-20T01:27:53.569Z,22.63
2024-01-20T01:30:22.112Z,23.02
2024-01-20T01:32:50.894Z,23.15
2024-01-20T01:35:18.956Z,22.65
2024-01-20T01:37:49.027Z,22.83
2024-01-20T01:40:17.468Z,22.33
2024-01-20T01:42:45.880Z,22.63
2024-01-20T01:45:14.398Z,23.38
2024-01-20T01:47:42.965Z,21.50
2024-01-20T01:50:11.876Z,21.35
2024-01-20T01:52:41.133Z,22.73
2024-01-20T01:55:12.570Z,21.83
2024-01-20T01:57:41.511Z,22.10
2024-01-20T02:00:11.100Z,22.63
2024-01-20T02:02:39.611Z,23.90
2024-01-20T02:05:08.173Z,23.33
2024-01-20T02:07:37.744Z,22.88
2024-01-20T02:10:10.939Z,22.00
2024-01-20T02:12:41.672Z,23.08
2024-01-20T02:15:13.556Z,21.80
2024-01-20T02:17:52.790Z,22.63
2024-01-20T02:20:21.697Z,21.88
2024-01-20T02:22:52.184Z,20.27
2024-01-20T02:25:20.802Z,22.17
2024-01-20T02:27:49.118Z,20.60
2024-01-20T02:30:17.761Z,22.17
2024-01-20T02:32:46.394Z,21.48
2024-01-20T02:35:17.382Z,19.88
2024-01-20T02:37:45.902Z,20.63
2024-01-20T02:40:15.827Z,20.15
2024-01-20T02:42:44.257Z,20.58
2024-01-20T02:45:12.829Z,19.98
2024-01-20T02:47:41.454Z,19.42
2024-01-20T02:50:11.034Z,19.08
2024-01-20T02:52:39.569Z,19.13
2024-01-20T02:55:08.926Z,19.10
2024-01-20T02:57:38.833Z,19.27
2024-01-20T03:00:09.777Z,18.50
2024-01-20T03:02:38.327Z,17.48
2024-01-20T03:05:08.155Z,18.40
2024-01-20T03:07:36.558Z,18.67
2024-01-20T03:10:05.607Z,18.23
2024-01-20T03:12:34.102Z,17.95
2024-01-20T03:15:04.192Z,19.02
2024-01-20T03:17:32.745Z,18.35
2024-01-20T03:20:01.241Z,18.30
2024-01-20T03:22:29.904Z,18.80
2024-01-20T03:24:58.697Z,17.70
2024-01-20T03:27:27.057Z,17.90
2024-01-20T03:29:55.589Z,20.40
2024-01-20T03:32:25.630Z,18.92
2024-01-20T03:34:53.983Z,16.63
2024-01-20T03:37:22.609Z,18.15
2024-01-20T03:39:51.025Z,17.67
2024-01-20T03:42:20.089Z,17.55
2024-01-20T03:44:48.541Z,16.50
2024-01-20T03:47:17.049Z,19.05
2024-01-20T03:49:46.914Z,19.65
2024-01-20T03:52:15.555Z,17.20
2024-01-20T03:54:44.549Z,18.63
2024-01-20T03:57:13.192Z,18.77
2024-01-20T03:59:41.638Z,17.70
2024-01-20T04:02:10.290Z,18.20
2024-01-20T04:04:39.412Z,17.50
2024-01-20T04:07:11.272Z,16.70
2024-01-20T04:09:39.881Z,17.48
2024-01-20T04:12:09.426Z,16.75
2024-01-20T04:14:38.082Z,18.20
2024-01-20T04:17:07.198Z,18.25
2024-01-20T04:19:35.618Z,17.42
2024-01-20T04:22:04.210Z,19.23
2024-01-20T04:24:33.987Z,17.35
2024-01-20T04:27:02.491Z,17.25
2024-01-20T04:29:31.092Z,16.05
2024-01-20T04:31:59.585Z,17.95
2024-01-20T04:34:28.018Z,17.73
2024-01-20T04:36:56.389Z,17.40
2024-01-20T04:39:24.773Z,18.77
2024-01-20T04:41:54.612Z,18.73
2024-01-20T04:44:23.837Z,18.90
2024-01-20T04:46:52.280Z,19.05
2024-01-20T04:49:20.658Z,19.90
2024-01-20T04:51:49.172Z,18.27
2024-01-20T04:54:17.644Z,17.90
2024-01-20T04:56:45.999Z,16.90
2024-01-20T04:59:15.926Z,18.42
2024-01-20T05:01:44.239Z,17.30
2024-01-20T05:04:12.794Z,17.13
2024-01-20T05:06:41.514Z,16.73
2024-01-20T05:09:10.000Z,15.93
2024-01-20T05:11:38.462Z,16.60
2024-01-20T05:14:07.120Z,16.33
2024-01-20T05:16:37.171Z,17.83
2024-01-20T05:19:06.079Z,16.30
2024-01-20T05:21:35.074Z,16.45
2024-01-20T05:24:03.569Z,16.67
2024-01-20T05:26:33.528Z,16.17
2024-01-20T05:29:02.346Z,16.85
2024-01-20T05:31:33.077Z,16.17
2024-01-20T05:34:03.320Z,16.63
2024-01-20T05:36:32.101Z,17.48
2024-01-20T05:39:00.590Z,16.00
2024-01-20T05:41:29.025Z,15.32
2024-01-20T05:43:57.509Z,15.65
2024-01-20T05:46:25.927Z,15.80
2024-01-20T05:48:54.408Z,16.05
2024-01-20T05:51:24.325Z,15.70
2024-01-20T05:53:53.257Z,14.88
2024-01-20T05:56:22.594Z,14.80
2024-01-20T05:58:51.234Z,14.68
2024-01-20T06:01:22.618Z,14.77
2024-01-20T06:03:51.167Z,15.48
2024-01-20T06:06:20.084Z,14.23
2024-01-20T06:08:50.113Z,16.05
2024-01-20T06:11:18.595Z,17.05
2024-01-20T06:13:47.033Z,15.55
2024-01-20T06:16:15.477Z,15.13
2024-01-20T06:18:43.869Z,14.63
2024-01-20T06:21:12.300Z,15.02
2024-01-20T06:23:40.674Z,15.75
2024-01-20T06:26:10.641Z,15.95
2024-01-20T06:28:38.979Z,15.30
2024-01-20T06:31:07.626Z,14.00
2024-01-20T06:33:36.172Z,15.05
2024-01-20T06:36:05.268Z,14.60
2024-01-20T06:38:33.841Z,14.82
2024-01-20T06:41:02.261Z,14.52
2024-01-20T06:43:32.196Z,15.10
2024-01-20T06:46:02.231Z,15.57
2024-01-20T06:48:34.067Z,17.02
2024-01-20T06:51:03.001Z,14.68
2024-01-20T06:53:32.984Z,16.35
2024-01-20T06:56:01.599Z,15.27
2024-01-20T06:58:31.546Z,15.10
2024-01-20T07:01:00.072Z,15.63
2024-01-20T07:03:28.614Z,16.17
2024-01-20T07:05:57.253Z,16.70
2024-01-20T07:08:25.885Z,15.88
2024-01-20T07:10:54.300Z,16.08
2024-01-20T07:13:23.018Z,16.70
2024-01-20T07:15:53.005Z,16.70
2024-01-20T07:18:21.482Z,16.88
2024-01-20T07:20:49.951Z,18.23
2024-01-20T07:23:18.558Z,16.83
2024-01-20T07:25:46.955Z,15.95
2024-01-20T07:28:19.224Z,17.83
2024-01-20T07:30:47.696Z,17.50
2024-01-20T07:33:17.790Z,17.25
2024-01-20T07:35:46.273Z,18.05
2024-01-20T07:38:15.681Z,17.42
2024-01-20T07:40:44.244Z,18.17
2024-01-20T07:43:12.669Z,18.20
2024-01-20T07:45:41.709Z,17.20
2024-01-20T07:48:23.501Z,17.58
2024-01-20T07:50:52.724Z,17.77
2024-01-20T07:53:21.388Z,18.83
2024-01-20T07:55:49.918Z,19.13
2024-01-20T07:58:18.404Z,19.63
2024-01-20T08:00:47.094Z,18.58
2024-01-20T08:03:15.753Z,18.70
2024-01-20T08:05:47.038Z,17.70
2024-01-20T08:08:15.709Z,17.45
2024-01-20T08:10:44.324Z,16.85
2024-01-20T08:13:12.873Z,16.77
2024-01-20T08:15:41.515Z,18.95
2024-01-20T08:18:10.233Z,17.00
2024-01-20T08:20:38.827Z,17.27
2024-01-20T08:23:08.974Z,17.48
2024-01-20T08:25:37.579Z,19.08
2024-01-20T08:28:06.497Z,17.98
2024-01-20T08:30:35.601Z,19.45
2024-01-20T08:33:05.423Z,19.33
2024-01-20T08:35:36.025Z,19.05
2024-01-20T08:38:04.851Z,19.65
2024-01-20T08:40:34.900Z,20.08
2024-01-20T08:43:03.368Z,20.42
2024-01-20T08:45:31.883Z,18.17
2024-01-20T08:48:00.514Z,18.17
2024-01-20T08:50:29.105Z,17.67
2024-01-20T08:52:57.511Z,18.02
2024-01-20T08:55:26.028Z,18.52
2024-01-20T08:57:58.066Z,16.95
2024-01-20T09:00:26.584Z,17.25
2024-01-20T09:02:55.274Z,18.13
2024-01-20T09:05:23.816Z,17.83
2024-01-20T09:07:52.612Z,17.20
2024-01-20T09:10:21.064Z,18.02
2024-01-20T09:12:50.191Z,19.05
2024-01-20T09:15:20.224Z,18.13
2024-01-20T09:17:49.043Z,17.35
2024-01-20T09:20:18.683Z,18.85
2024-01-20T09:22:48.406Z,16.80
2024-01-20T09:25:17.288Z,16.65
2024-01-20T09:27:46.311Z,17.15
2024-01-20T09:30:15.940Z,16.40
2024-01-20T09:32:46.399Z,17.10
2024-01-20T09:35:15.081Z,17.42
2024-01-20T09:37:43.643Z,17.88
2024-01-20T09:40:13.712Z,17.35
2024-01-20T09:42:42.647Z,17.40
2024-01-20T09:45:11.852Z,17.63
2024-01-20T09:47:40.569Z,16.33
2024-01-20T09:50:12.469Z,16.73
2024-01-20T09:52:54.705Z,16.70
2024-01-20T09:55:25.284Z,16.92
2024-01-20T09:57:55.178Z,17.63
2024-01-20T10:00:25.592Z,17.88
2024-01-20T10:02:54.910Z,16.70
2024-01-20T10:05:26.972Z,17.02
2024-01-20T10:07:55.710Z,17.67
2024-01-20T10:10:24.426Z,17.25
2024-01-20T10:12:53.589Z,18.45
2024-01-20T10:15:24.187Z,15.93
2024-01-20T10:17:53.017Z,16.58
2024-01-20T10:20:24.925Z,15.90
2024-01-20T10:22:54.405Z,14.90
2024-01-20T10:25:22.992Z,16.42
2024-01-20T10:27:52.949Z,18.23
2024-01-20T10:30:23.059Z,16.08
2024-01-20T10:35:25.463Z,16.40
2024-01-20T10:37:56.448Z,17.27
2024-01-20T10:40:24.959Z,16.00
2024-01-20T10:42:57.753Z,17.08
2024-01-20T10:45:27.818Z,16.42
2024-01-20T10:48:10.865Z,15.88
2024-01-20T10:50:47.549Z,16.60
2024-01-20T10:53:16.903Z,17.83
2024-01-20T10:55:47.834Z,18.50
2024-01-20T10:58:22.048Z,19.00
2024-01-20T11:00:51.839Z,17.88
2024-01-20T11:03:20.583Z,17.63
2024-01-20T11:05:50.590Z,17.48
2024-01-20T11:08:26.473Z,18.02
2024-01-20T11:10:56.751Z,18.50
2024-01-20T11:13:29.308Z,19.30
2024-01-20T11:15:59.352Z,18.30
2024-01-20T11:18:31.366Z,18.25
2024-01-20T11:21:03.285Z,18.45
2024-01-20T11:23:32.626Z,16.92
2024-01-20T11:26:12.640Z,17.42
2024-01-20T11:28:45.481Z,17.92
2024-01-20T11:31:21.363Z,17.50
2024-01-20T11:33:50.610Z,16.92
2024-01-20T11:36:20.644Z,16.02
2024-01-20T11:38:51.977Z,15.25
2024-01-20T11:41:21.082Z,16.08
2024-01-20T11:43:50.100Z,16.05
2024-01-20T11:46:19.945Z,17.42
2024-01-20T11:48:50.006Z,17.33
2024-01-20T11:51:23.340Z,18.48
2024-01-20T11:53:53.180Z,18.30
2024-01-20T11:56:22.170Z,18.63
2024-01-20T11:58:51.441Z,18.45
2024-01-20T12:01:20.740Z,17.75
2024-01-20T12:03:50.243Z,18.33
2024-01-20T12:06:21.342Z,18.70
2024-01-20T12:08:50.862Z,19.92
2024-01-20T12:11:21.433Z,21.10
2024-01-20T12:13:50.876Z,19.63
2024-01-20T12:16:21.488Z,19.70
2024-01-20T12:18:51.032Z,19.15
2024-01-20T12:21:22.116Z,21.98
2024-01-20T12:23:51.740Z,21.90
2024-01-20T12:26:21.470Z,21.35
2024-01-20T12:28:52.824Z,22.77
2024-01-20T12:31:23.272Z,22.42
2024-01-20T12:33:52.502Z,23.02
2024-01-20T12:36:23.119Z,22.40
2024-01-20T12:38:54.881Z,21.33
2024-01-20T12:41:24.296Z,20.70
2024-01-20T12:43:54.122Z,21.25
2024-01-20T12:46:25.435Z,20.30
2024-01-20T12:48:54.465Z,20.58
2024-01-20T12:51:27.843Z,20.25
2024-01-20T12:54:00.837Z,20.00
2024-01-20T12:56:37.688Z,19.98
2024-01-20T12:59:09.531Z,19.30
2024-01-20T13:01:40.870Z,19.50
2024-01-20T13:04:10.521Z,19.73
2024-01-20T13:06:41.391Z,18.67
2024-01-20T13:09:11.672Z,19.67
2024-01-20T13:11:41.366Z,18.02
2024-01-20T13:14:10.776Z,19.48
2024-01-20T13:16:39.782Z,18.50
2024-01-20T13:19:09.157Z,19.42
2024-01-20T13:21:39.914Z,19.02
2024-01-20T13:24:09.590Z,17.70
2024-01-20T13:26:38.529Z,18.35
2024-01-20T13:29:07.966Z,18.60
2024-01-20T13:31:37.077Z,18.42
2024-01-20T13:34:09.853Z,17.50
2024-01-20T13:36:40.330Z,21.13
2024-01-20T13:39:09.749Z,28.13
2024-01-20T13:41:38.674Z,31.88
2024-01-20T13:44:07.766Z,33.30
2024-01-20T13:46:39.693Z,30.40
2024-01-20T13:49:10.919Z,28.58
2024-01-20T13:51:43.397Z,25.73
2024-01-20T13:54:12.617Z,22.38
2024-01-20T13:56:41.550Z,19.88
2024-01-20T13:59:10.856Z,20.58
2024-01-20T14:01:39.993Z,19.95
2024-01-20T14:04:08.998Z,19.60
2024-01-20T14:06:38.972Z,19.10
2024-01-20T14:09:11.349Z,22.05
2024-01-20T14:11:40.584Z,26.17
2024-01-20T14:14:09.463Z,26.63
2024-01-20T14:16:38.494Z,27.38
2024-01-20T14:19:09.107Z,28.90
2024-01-20T14:21:38.758Z,30.10
2024-01-20T14:24:09.505Z,31.40
2024-01-20T14:26:38.442Z,30.80
2024-01-20T14:29:10.176Z,29.67
2024-01-20T14:31:48.781Z,25.05
2024-01-20T14:34:18.157Z,24.10
2024-01-20T14:36:50.249Z,22.33
2024-01-20T14:39:20.976Z,23.08
2024-01-20T14:41:50.120Z,23.33
2024-01-20T14:44:19.243Z,20.77
2024-01-20T14:46:48.894Z,21.52
2024-01-20T14:49:17.973Z,20.10
2024-01-20T14:51:47.378Z,18.02
2024-01-20T14:54:16.897Z,17.45
2024-01-20T14:56:47.661Z,16.92
2024-01-20T14:59:16.978Z,14.70
2024-01-20T15:01:49.780Z,16.27
2024-01-20T15:04:37.960Z,15.18
2024-01-20T15:07:07.098Z,14.18
2024-01-20T15:09:37.520Z,14.93
2024-01-20T15:12:10.205Z,14.38
2024-01-20T15:14:38.915Z,12.32
2024-01-20T15:17:07.621Z,13.32
2024-01-20T15:19:39.671Z,12.63
2024-01-20T15:22:08.768Z,13.13
2024-01-20T15:24:37.540Z,13.63
2024-01-20T15:27:07.969Z,13.32
2024-01-20T15:29:37.022Z,12.07
2024-01-20T15:32:12.069Z,16.23
2024-01-20T15:34:40.586Z,14.07
2024-01-20T15:37:10.176Z,12.90
2024-01-20T15:39:48.706Z,12.98
2024-01-20T15:42:19.620Z,12.50
2024-01-20T15:44:48.657Z,12.55
2024-01-20T15:47:20.053Z,13.05
2024-01-20T15:49:49.335Z,13.48
2024-01-20T15:52:19.359Z,14.02
2024-01-20T15:54:49.419Z,13.90
2024-01-20T15:57:19.883Z,13.18
2024-01-20T15:59:49.671Z,12.18
2024-01-20T16:02:18.983Z,17.25
2024-01-20T16:04:47.997Z,14.13
2024-01-20T16:07:17.591Z,12.07
2024-01-20T16:09:46.698Z,12.80
2024-01-20T16:12:15.828Z,14.95
2024-01-20T16:14:46.301Z,13.63
2024-01-20T16:17:15.345Z,13.70
2024-01-20T16:19:44.193Z,14.18
2024-01-20T16:22:14.762Z,14.05
2024-01-20T16:24:43.666Z,12.35
2024-01-20T16:27:34.153Z,14.27
2024-01-20T16:30:59.287Z,14.13
2024-01-20T16:33:43.207Z,18.95
2024-01-20T16:36:20.255Z,13.73
2024-01-20T16:38:59.911Z,13.25
2024-01-20T16:41:29.506Z,13.15
2024-01-20T16:43:59.557Z,12.30
2024-01-20T16:46:32.544Z,15.50
2024-01-20T16:49:04.636Z,13.20
2024-01-20T16:51:38.140Z,12.40
2024-01-20T16:54:07.423Z,13.07
2024-01-20T16:56:36.089Z,11.57
2024-01-20T16:59:06.045Z,11.57
2024-01-20T17:01:41.970Z,11.70
2024-01-20T17:04:13.228Z,10.77
2024-01-20T17:06:42.167Z,12.00
2024-01-20T17:09:11.679Z,12.05
2024-01-20T17:11:40.603Z,12.13
2024-01-20T17:14:09.910Z,16.33
2024-01-20T17:16:38.444Z,12.80
2024-01-20T17:19:07.238Z,13.55
2024-01-20T17:21:37.203Z,12.38
2024-01-20T17:24:06.882Z,13.73
2024-01-20T17:26:35.453Z,15.07
2024-01-20T17:29:03.924Z,11.85
2024-01-20T17:31:34.745Z,12.30
2024-01-20T17:34:04.947Z,14.50
2024-01-20T17:36:33.675Z,14.93
2024-01-20T17:39:05.174Z,13.93
2024-01-20T17:41:34.182Z,12.15
2024-01-20T17:44:02.681Z,20.95
2024-01-20T17:46:31.273Z,16.33
2024-01-20T17:48:59.901Z,14.25
2024-01-20T17:51:28.848Z,12.77
2024-01-20T17:54:03.025Z,11.93
2024-01-20T17:56:32.049Z,13.45
2024-01-20T17:59:01.082Z,14.07
2024-01-20T18:01:30.209Z,14.88
2024-01-20T18:04:02.596Z,13.95
2024-01-20T18:06:32.156Z,10.60
2024-01-20T18:09:05.218Z,11.48
2024-01-20T18:11:38.832Z,11.35
2024-01-20T18:14:13.518Z,16.55
2024-01-20T18:16:43.460Z,11.98
2024-01-20T18:19:13.148Z,11.15
2024-01-20T18:21:42.146Z,12.07
2024-01-20T18:24:12.425Z,9.50
2024-01-20T18:26:40.990Z,11.23
2024-01-20T18:29:09.716Z,12.07
2024-01-20T18:31:38.365Z,11.48
2024-01-20T18:34:07.640Z,11.15
2024-01-20T18:36:36.325Z,12.20
2024-01-20T18:39:05.541Z,12.55
2024-01-20T18:41:35.899Z,14.80
2024-01-20T18:44:05.522Z,17.77
2024-01-20T18:46:34.093Z,18.40
2024-01-20T18:49:03.034Z,12.23
2024-01-20T18:51:31.904Z,12.88
2024-01-20T18:54:00.834Z,10.60
2024-01-20T18:56:29.936Z,10.98
2024-01-20T18:59:01.974Z,9.55
2024-01-20T19:01:34.102Z,9.35
2024-01-20T19:04:06.234Z,9.82
2024-01-20T19:06:35.343Z,10.27
2024-01-20T19:09:05.173Z,10.30
2024-01-20T19:11:33.833Z,10.35
2024-01-20T19:14:05.242Z,9.90
2024-01-20T19:16:34.240Z,10.55
2024-01-20T19:19:04.498Z,10.95
2024-01-20T19:21:33.812Z,11.18
2024-01-20T19:24:04.498Z,11.15
2024-01-20T19:26:34.552Z,11.25
2024-01-20T19:29:08.708Z,11.65
2024-01-20T19:31:37.933Z,10.75
2024-01-20T19:34:11.897Z,11.30
2024-01-20T19:36:42.163Z,11.45
2024-01-20T19:39:12.015Z,11.00
2024-01-20T19:41:41.201Z,10.95
2024-01-20T19:44:15.381Z,11.13
2024-01-20T19:46:44.559Z,11.25
2024-01-20T19:49:13.231Z,11.43
2024-01-20T19:51:42.174Z,11.15
2024-01-20T19:54:15.590Z,11.93
2024-01-20T19:56:45.360Z,11.95
2024-01-20T19:59:17.943Z,12.13
2024-01-20T20:01:47.974Z,11.05
2024-01-20T20:04:18.294Z,10.68
2024-01-20T20:06:47.419Z,11.88
2024-01-20T20:09:16.422Z,11.85
2024-01-20T20:11:45.004Z,11.80
2024-01-20T20:14:21.526Z,11.55
2024-01-20T20:16:50.104Z,15.05
2024-01-20T20:19:18.852Z,23.85
2024-01-20T20:21:47.546Z,13.80
2024-01-20T20:24:16.450Z,13.05
2024-01-20T20:26:45.319Z,13.90
2024-01-20T20:29:15.929Z,12.63
2024-01-20T20:31:45.375Z,11.63
2024-01-20T20:34:14.349Z,12.10
2024-01-20T20:36:43.035Z,12.85
2024-01-20T20:39:11.593Z,12.15
2024-01-20T20:41:40.302Z,13.27
2024-01-20T20:44:09.907Z,13.13
2024-01-20T20:46:39.874Z,12.70
2024-01-20T20:49:09.322Z,13.07
2024-01-20T20:51:38.219Z,14.38
2024-01-20T20:54:07.548Z,13.73
2024-01-20T20:56:36.102Z,13.68
2024-01-20T20:59:04.850Z,13.25
2024-01-20T21:01:33.624Z,13.70
2024-01-20T21:04:07.183Z,14.32
2024-01-20T21:06:36.259Z,14.20
2024-01-20T21:09:05.368Z,13.63
2024-01-20T21:11:33.905Z,15.40
2024-01-20T21:14:02.416Z,15.38
2024-01-20T21:16:31.210Z,15.07
2024-01-20T21:19:00.465Z,14.75
2024-01-20T21:21:30.555Z,13.77
2024-01-20T21:23:59.114Z,14.13
2024-01-20T21:26:27.517Z,14.68
2024-01-20T21:28:56.056Z,13.82
2024-01-20T21:31:24.450Z,15.32
2024-01-20T21:33:53.262Z,14.88
2024-01-20T21:36:24.017Z,14.27
2024-01-20T21:38:54.510Z,12.65
2024-01-20T21:41:22.941Z,13.63
2024-01-20T21:43:52.044Z,13.27
2024-01-20T21:46:21.207Z,13.75
2024-01-20T21:48:49.825Z,12.73
2024-01-20T21:51:18.657Z,13.30
2024-01-20T21:53:47.088Z,13.55
2024-01-20T21:56:17.762Z,11.65
2024-01-20T21:58:46.435Z,12.45
2024-01-20T22:01:15.306Z,12.93
2024-01-20T22:03:44.027Z,13.40
2024-01-20T22:06:12.526Z,12.05
2024-01-20T22:08:40.956Z,13.02
2024-01-20T22:11:09.326Z,12.10
2024-01-20T22:13:39.925Z,11.68
2024-01-20T22:16:09.128Z,11.52
2024-01-20T22:18:37.700Z,11.98
2024-01-20T22:21:11.930Z,11.65
2024-01-20T22:23:40.654Z,10.88
2024-01-20T22:26:09.043Z,11.50
2024-01-20T22:28:39.205Z,11.18
2024-01-20T22:31:07.695Z,10.93
2024-01-20T22:33:36.459Z,10.85
2024-01-20T22:36:05.723Z,10.68
2024-01-20T22:38:34.077Z,10.02
2024-01-20T22:41:02.704Z,10.57
2024-01-20T22:43:32.405Z,10.40
2024-01-20T22:46:02.251Z,10.15
2024-01-20T22:48:36.663Z,10.05
2024-01-20T22:51:06.349Z,10.48
2024-01-20T22:53:34.757Z,10.02
2024-01-20T22:56:11.960Z,10.30
2024-01-20T22:58:40.832Z,9.88
2024-01-20T23:01:10.955Z,10.07
2024-01-20T23:03:39.599Z,9.48
2024-01-20T23:06:09.822Z,10.20
2024-01-20T23:08:44.011Z,9.80
2024-01-20T23:11:18.242Z,9.73
2024-01-20T23:13:56.193Z,8.98
2024-01-20T23:16:26.038Z,9.48
2024-01-20T23:18:57.910Z,8.30
2024-01-20T23:21:27.060Z,9.15
2024-01-20T23:23:55.804Z,8.77
2024-01-20T23:26:24.554Z,7.82
2024-01-20T23:28:55.074Z,8.23
2024-01-20T23:31:24.207Z,8.43
2024-01-20T23:33:58.164Z,7.72
2024-01-20T23:36:26.872Z,7.45
2024-01-20T23:38:55.397Z,6.95
2024-01-20T23:41:27.785Z,6.88
2024-01-20T23:43:56.474Z,6.28
2024-01-20T23:46:24.977Z,8.10
2024-01-20T23:48:55.562Z,6.93
2024-01-20T23:51:24.428Z,6.78
2024-01-20T23:53:53.077Z,7.18
2024-01-20T23:56:21.733Z,5.75
2024-01-20T23:58:50.192Z,6.05
